createdAt,value
2022-11-03T00:01:01.786Z,12.11
2022-11-03T00:03:29.338Z,12.13
2022-11-03T00:06:06.320Z,12.13
2022-11-03T00:08:33.970Z,12.14
2022-11-03T00:11:01.938Z,12.15
2022-11-03T00:13:29.535Z,12.14
2022-11-03T00:15:57.082Z,12.15
2022-11-03T00:18:24.639Z,12.14
2022-11-03T00:20:52.208Z,12.16
2022-11-03T00:23:20.226Z,12.15
2022-11-03T00:25:47.785Z,12.13
2022-11-03T00:28:15.662Z,12.14
2022-11-03T00:30:43.276Z,12.14
2022-11-03T00:33:10.839Z,12.13
2022-11-03T00:35:38.813Z,12.15
2022-11-03T00:38:06.387Z,12.12
2022-11-03T00:40:33.900Z,12.13
2022-11-03T00:43:01.530Z,12.14
2022-11-03T00:45:29.118Z,12.13
2022-11-03T00:48:10.847Z,12.14
2022-11-03T00:50:38.375Z,12.15
2022-11-03T00:53:06.069Z,12.15
2022-11-03T00:55:33.903Z,12.15
2022-11-03T00:58:01.415Z,12.13
2022-11-03T01:00:29.281Z,12.13
2022-11-03T01:02:56.880Z,12.12
2022-11-03T01:05:41.717Z,12.11
2022-11-03T01:08:09.786Z,12.11
2022-11-03T01:10:37.752Z,12.11
2022-11-03T01:13:05.523Z,12.12
2022-11-03T01:15:33.311Z,12.14
2022-11-03T01:18:00.839Z,12.13
2022-11-03T01:20:28.835Z,12.14
2022-11-03T01:22:56.765Z,12.15
2022-11-03T01:25:25.563Z,12.16
2022-11-03T01:27:53.125Z,12.18
2022-11-03T01:30:21.022Z,12.20
2022-11-03T01:32:50.397Z,12.23
2022-11-03T01:35:18.320Z,12.24
2022-11-03T01:37:45.881Z,12.25
2022-11-03T01:40:13.406Z,12.26
2022-11-03T01:42:40.947Z,12.24
2022-11-03T01:45:09.537Z,12.27
2022-11-03T01:47:37.483Z,12.28
2022-11-03T01:50:05.015Z,12.28
2022-11-03T01:52:34.161Z,12.30
2022-11-03T01:55:01.683Z,12.31
2022-11-03T01:57:29.388Z,12.32
2022-11-03T01:59:58.381Z,12.33
2022-11-03T02:02:26.038Z,12.34
2022-11-03T02:04:53.598Z,12.35
2022-11-03T02:07:21.162Z,12.33
2022-11-03T02:09:49.514Z,12.35
2022-11-03T02:12:17.426Z,12.37
2022-11-03T02:14:45.293Z,12.38
2022-11-03T02:17:12.836Z,12.38
2022-11-03T02:19:40.361Z,12.36
2022-11-03T02:22:08.008Z,12.34
2022-11-03T02:24:35.979Z,12.29
2022-11-03T02:27:03.475Z,12.27
2022-11-03T02:29:31.056Z,12.26
2022-11-03T02:31:58.593Z,12.26
2022-11-03T02:34:26.880Z,12.27
2022-11-03T02:36:55.061Z,12.29
2022-11-03T02:39:22.609Z,12.30
2022-11-03T02:41:50.123Z,12.29
2022-11-03T02:44:17.694Z,12.29
2022-11-03T02:46:45.283Z,12.28
2022-11-03T02:49:13.269Z,12.26
2022-11-03T02:51:40.846Z,12.25
2022-11-03T02:54:08.392Z,12.26
2022-11-03T02:56:35.916Z,12.25
2022-11-03T02:59:06.498Z,12.25
2022-11-03T03:01:35.252Z,12.25
2022-11-03T03:04:02.929Z,12.24
2022-11-03T03:06:30.615Z,12.22
2022-11-03T03:08:58.421Z,12.21
2022-11-03T03:11:39.016Z,12.20
2022-11-03T03:14:07.228Z,12.21
2022-11-03T03:16:34.808Z,12.21
2022-11-03T03:19:02.366Z,12.23
2022-11-03T03:21:29.892Z,12.21
2022-11-03T03:23:57.431Z,12.21
2022-11-03T03:26:25.009Z,12.19
2022-11-03T03:28:52.561Z,12.18
2022-11-03T03:31:20.120Z,12.17
2022-11-03T03:33:48.084Z,12.15
2022-11-03T03:36:16.150Z,12.17
2022-11-03T03:38:43.709Z,12.15
2022-11-03T03:41:11.281Z,12.15
2022-11-03T03:43:38.836Z,12.14
2022-11-03T03:46:06.350Z,12.13
2022-11-03T03:48:34.231Z,12.15
2022-11-03T03:51:01.763Z,12.16
2022-11-03T03:53:29.323Z,12.15
2022-11-03T03:55:56.971Z,12.15
2022-11-03T03:58:24.516Z,12.15
2022-11-03T04:00:52.574Z,12.16
2022-11-03T04:03:20.513Z,12.17
2022-11-03T04:05:48.079Z,12.18
2022-11-03T04:08:15.623Z,12.20
2022-11-03T04:11:04.034Z,12.21
2022-11-03T04:13:48.862Z,12.25
2022-11-03T04:16:33.988Z,12.27
2022-11-03T04:19:18.934Z,12.29
2022-11-03T04:22:06.625Z,12.28
2022-11-03T04:24:34.456Z,12.29
2022-11-03T04:27:01.991Z,12.30
2022-11-03T04:29:29.553Z,12.31
2022-11-03T04:31:57.092Z,12.33
2022-11-03T04:34:24.965Z,12.36
2022-11-03T04:36:52.525Z,12.38
2022-11-03T04:39:20.045Z,12.38
2022-11-03T04:41:47.624Z,12.42
2022-11-03T04:44:15.176Z,12.43
2022-11-03T04:46:46.237Z,12.42
2022-11-03T04:49:13.773Z,12.38
2022-11-03T04:51:41.367Z,12.36
2022-11-03T04:54:08.875Z,12.36
2022-11-03T04:56:36.455Z,12.37
2022-11-03T04:59:04.271Z,12.39
2022-11-03T05:01:31.921Z,12.41
2022-11-03T05:03:59.612Z,12.43
2022-11-03T05:06:27.180Z,12.44
2022-11-03T05:08:54.704Z,12.45
2022-11-03T05:11:23.549Z,12.45
2022-11-03T05:13:51.144Z,12.45
2022-11-03T05:16:19.031Z,12.44
2022-11-03T05:18:46.581Z,12.42
2022-11-03T05:21:14.196Z,12.45
2022-11-03T05:23:42.633Z,12.45
2022-11-03T05:26:10.205Z,12.45
2022-11-03T05:28:38.110Z,12.46
2022-11-03T05:31:05.650Z,12.44
2022-11-03T05:33:33.207Z,12.45
2022-11-03T05:36:02.591Z,12.43
2022-11-03T05:38:30.140Z,12.42
2022-11-03T05:40:57.728Z,12.44
2022-11-03T05:43:25.354Z,12.43
2022-11-03T05:45:52.994Z,12.43
2022-11-03T05:48:21.515Z,12.44
2022-11-03T05:50:49.411Z,12.44
2022-11-03T05:53:16.961Z,12.46
2022-11-03T05:55:44.533Z,12.48
2022-11-03T05:58:12.176Z,12.53
2022-11-03T06:00:47.124Z,12.56
2022-11-03T06:03:16.204Z,12.58
2022-11-03T06:05:43.795Z,12.59
2022-11-03T06:08:11.378Z,12.61
2022-11-03T06:10:39.081Z,12.64
2022-11-03T06:13:10.253Z,12.66
2022-11-03T06:15:38.897Z,12.67
2022-11-03T06:18:06.529Z,12.67
2022-11-03T06:20:34.102Z,12.68
2022-11-03T06:23:01.693Z,12.69
2022-11-03T06:25:30.956Z,12.69
2022-11-03T06:27:58.807Z,12.70
2022-11-03T06:30:26.610Z,12.71
2022-11-03T06:32:54.307Z,12.72
2022-11-03T06:35:22.258Z,12.73
2022-11-03T06:37:50.687Z,12.75
2022-11-03T06:40:18.314Z,12.77
2022-11-03T06:42:45.909Z,12.79
2022-11-03T06:45:13.490Z,12.81
2022-11-03T06:47:41.166Z,12.85
2022-11-03T06:50:10.167Z,12.89
2022-11-03T06:52:37.807Z,12.91
2022-11-03T06:55:05.518Z,12.92
2022-11-03T06:57:33.374Z,12.92
2022-11-03T07:00:20.407Z,12.94
2022-11-03T07:02:50.545Z,12.95
2022-11-03T07:05:18.089Z,12.96
2022-11-03T07:07:45.651Z,12.97
2022-11-03T07:10:13.327Z,12.99
2022-11-03T07:12:40.944Z,13.01
2022-11-03T07:15:09.492Z,13.01
2022-11-03T07:17:37.471Z,13.02
2022-11-03T07:20:05.225Z,13.04
2022-11-03T07:22:32.793Z,13.06
2022-11-03T07:25:00.452Z,13.07
2022-11-03T07:27:29.988Z,13.09
2022-11-03T07:29:57.598Z,13.11
2022-11-03T07:32:25.222Z,13.14
2022-11-03T07:34:52.900Z,13.17
2022-11-03T07:37:20.539Z,13.19
2022-11-03T07:39:49.280Z,13.22
2022-11-03T07:42:16.943Z,13.24
2022-11-03T07:44:44.634Z,13.25
2022-11-03T07:47:12.369Z,13.27
2022-11-03T07:49:40.041Z,13.29
2022-11-03T07:52:08.576Z,13.30
2022-11-03T07:54:36.253Z,13.31
2022-11-03T07:57:03.838Z,13.34
2022-11-03T07:59:31.645Z,13.36
2022-11-03T08:02:00.097Z,13.40
2022-11-03T08:04:30.265Z,13.42
2022-11-03T08:06:58.141Z,13.42
2022-11-03T08:09:26.066Z,13.45
2022-11-03T08:11:53.748Z,13.46
2022-11-03T08:14:21.445Z,13.47
2022-11-03T08:16:50.824Z,13.48
2022-11-03T08:19:18.588Z,13.49
2022-11-03T08:21:46.280Z,13.52
2022-11-03T08:24:14.351Z,13.55
2022-11-03T08:26:42.087Z,13.60
2022-11-03T08:29:10.580Z,13.67
2022-11-03T08:31:38.387Z,13.75
2022-11-03T08:34:06.112Z,13.84
2022-11-03T08:36:34.387Z,13.95
2022-11-03T08:39:02.176Z,14.05
2022-11-03T08:41:30.443Z,14.15
2022-11-03T08:43:58.186Z,14.23
2022-11-03T08:46:26.114Z,14.31
2022-11-03T08:48:53.935Z,14.37
2022-11-03T08:51:21.691Z,14.41
2022-11-03T08:53:54.147Z,14.45
2022-11-03T08:56:22.590Z,14.47
2022-11-03T08:58:50.659Z,14.51
2022-11-03T09:01:18.455Z,14.53
2022-11-03T09:03:46.257Z,14.56
2022-11-03T09:06:14.619Z,14.59
2022-11-03T09:11:30.245Z,14.69
2022-11-03T09:13:58.099Z,14.76
2022-11-03T09:16:27.104Z,14.80
2022-11-03T09:18:54.836Z,14.83
2022-11-03T09:21:22.591Z,14.88
2022-11-03T09:23:50.386Z,14.92
2022-11-03T09:26:18.258Z,14.98
2022-11-03T09:28:49.952Z,15.04
2022-11-03T09:31:17.668Z,15.12
2022-11-03T09:33:45.607Z,15.20
2022-11-03T09:36:13.431Z,15.28
2022-11-03T09:38:41.077Z,15.36
2022-11-03T09:41:18.772Z,15.44
2022-11-03T09:43:54.646Z,15.55
2022-11-03T09:46:22.462Z,15.73
2022-11-03T09:48:50.345Z,15.85
2022-11-03T09:51:19.374Z,15.89
2022-11-03T09:53:47.142Z,15.90
2022-11-03T09:56:14.931Z,15.89
2022-11-03T09:58:42.807Z,15.89
2022-11-03T10:01:10.631Z,15.90
2022-11-03T10:03:41.083Z,15.91
2022-11-03T10:06:11.104Z,15.93
2022-11-03T10:08:43.283Z,15.90
2022-11-03T10:11:11.086Z,15.89
2022-11-03T10:13:39.630Z,15.92
2022-11-03T10:16:08.026Z,15.99
2022-11-03T10:18:35.817Z,16.02
2022-11-03T10:21:03.604Z,16.07
2022-11-03T10:23:31.342Z,16.13
2022-11-03T10:25:59.825Z,16.17
2022-11-03T10:28:28.815Z,16.19
2022-11-03T10:31:10.662Z,16.19
2022-11-03T10:33:40.888Z,16.17
2022-11-03T10:36:09.145Z,16.12
2022-11-03T10:38:37.303Z,16.10
2022-11-03T10:41:05.352Z,16.08
2022-11-03T10:43:33.159Z,16.04
2022-11-03T10:46:00.889Z,16.03
2022-11-03T10:48:29.642Z,16.04
2022-11-03T10:50:58.129Z,16.05
2022-11-03T10:55:58.796Z,16.04
2022-11-03T10:58:26.673Z,16.05
2022-11-03T11:00:55.895Z,16.05
2022-11-03T11:03:24.400Z,16.06
2022-11-03T11:05:52.157Z,16.07
2022-11-03T11:08:19.983Z,16.08
2022-11-03T11:10:48.078Z,16.08
2022-11-03T11:13:17.952Z,16.08
2022-11-03T11:15:46.262Z,16.06
2022-11-03T11:18:15.073Z,16.04
2022-11-03T11:20:42.908Z,16.05
2022-11-03T11:23:11.005Z,16.06
2022-11-03T11:25:40.572Z,16.07
2022-11-03T11:28:08.850Z,16.06
2022-11-03T11:30:36.674Z,16.03
2022-11-03T11:33:04.876Z,16.00
2022-11-03T11:35:33.111Z,15.97
2022-11-03T11:38:03.031Z,15.95
2022-11-03T11:40:31.279Z,15.95
2022-11-03T11:42:59.094Z,15.95
2022-11-03T11:45:26.832Z,15.98
2022-11-03T11:47:54.804Z,16.06
2022-11-03T11:50:22.702Z,16.15
2022-11-03T11:52:50.774Z,16.28
2022-11-03T11:55:18.699Z,16.42
2022-11-03T11:57:46.984Z,16.57
2022-11-03T12:00:14.948Z,16.74
2022-11-03T12:02:44.980Z,16.92
2022-11-03T12:05:12.959Z,17.23
2022-11-03T12:07:40.725Z,17.48
2022-11-03T12:10:08.698Z,17.62
2022-11-03T12:12:36.987Z,17.68
2022-11-03T12:15:05.010Z,17.70
2022-11-03T12:17:32.969Z,17.70
2022-11-03T12:20:01.105Z,17.67
2022-11-03T12:22:29.420Z,17.67
2022-11-03T12:24:57.221Z,17.74
2022-11-03T12:27:26.553Z,17.80
2022-11-03T12:29:54.907Z,17.81
2022-11-03T12:32:34.012Z,17.76
2022-11-03T12:35:02.643Z,17.78
2022-11-03T12:37:30.651Z,17.78
2022-11-03T12:39:58.340Z,17.72
2022-11-03T12:42:26.357Z,17.68
2022-11-03T12:44:54.188Z,17.66
2022-11-03T12:47:21.938Z,17.65
2022-11-03T12:49:50.570Z,17.65
2022-11-03T12:52:18.524Z,17.64
2022-11-03T12:54:46.501Z,17.66
2022-11-03T12:57:14.849Z,17.64
2022-11-03T12:59:42.727Z,17.54
2022-11-03T13:02:13.748Z,17.43
2022-11-03T13:04:42.127Z,17.31
2022-11-03T13:07:09.976Z,17.25
2022-11-03T13:09:37.838Z,17.39
2022-11-03T13:12:23.277Z,17.55
2022-11-03T13:14:51.524Z,17.75
2022-11-03T13:17:19.316Z,17.89
2022-11-03T13:19:47.103Z,17.99
2022-11-03T13:22:15.135Z,17.98
2022-11-03T13:24:43.095Z,17.80
2022-11-03T13:27:13.023Z,17.58
2022-11-03T13:29:40.975Z,17.41
2022-11-03T13:32:08.708Z,17.41
2022-11-03T13:34:36.713Z,17.54
2022-11-03T13:37:04.962Z,17.60
2022-11-03T13:39:33.365Z,17.49
2022-11-03T13:42:01.811Z,17.34
2022-11-03T13:44:29.549Z,17.13
2022-11-03T13:46:57.300Z,16.94
2022-11-03T13:52:14.723Z,16.70
2022-11-03T14:00:18.232Z,16.37
2022-11-03T14:05:34.162Z,16.20
2022-11-03T14:08:01.992Z,16.16
2022-11-03T14:10:29.861Z,16.13
2022-11-03T14:12:57.188Z,16.07
2022-11-03T14:15:26.477Z,16.05
2022-11-03T14:17:54.465Z,16.02
2022-11-03T14:20:22.478Z,15.99
2022-11-03T14:22:50.665Z,15.96
2022-11-03T14:25:20.859Z,15.91
2022-11-03T14:27:51.029Z,15.85
2022-11-03T14:30:18.994Z,15.79
2022-11-03T14:32:46.931Z,15.72
2022-11-03T14:35:14.850Z,15.67
2022-11-03T14:37:42.986Z,15.62
2022-11-03T14:40:31.618Z,15.56
2022-11-03T14:42:58.727Z,15.52
2022-11-03T14:45:26.852Z,15.49
2022-11-03T14:47:55.031Z,15.46
2022-11-03T14:50:22.943Z,15.42
2022-11-03T14:52:50.792Z,15.40
2022-11-03T14:55:18.626Z,15.35
2022-11-03T14:57:46.429Z,15.31
2022-11-03T15:00:14.522Z,15.26
2022-11-03T15:02:43.648Z,15.24
2022-11-03T15:05:32.484Z,15.21
2022-11-03T15:08:00.550Z,15.20
2022-11-03T15:10:28.831Z,15.18
2022-11-03T15:12:57.620Z,15.15
2022-11-03T15:15:25.669Z,15.12
2022-11-03T15:40:17.132Z,15.08
2022-11-03T15:45:47.762Z,15.15
2022-11-03T15:48:15.544Z,15.08
2022-11-03T15:50:44.572Z,14.99
2022-11-03T15:56:21.734Z,14.79
2022-11-03T15:58:49.835Z,14.69
2022-11-03T16:01:18.212Z,14.60
2022-11-03T16:03:46.288Z,14.49
2022-11-03T16:06:14.307Z,14.36
2022-11-03T16:08:42.034Z,14.24
2022-11-03T16:11:09.955Z,14.18
2022-11-03T16:13:39.783Z,14.15
2022-11-03T16:16:07.755Z,14.14
2022-11-03T16:18:35.796Z,14.14
2022-11-03T16:21:04.047Z,14.13
2022-11-03T16:23:32.351Z,14.11
2022-11-03T16:26:00.523Z,14.09
2022-11-03T16:28:28.464Z,14.07
2022-11-03T16:30:56.253Z,14.01
2022-11-03T16:33:24.172Z,13.91
2022-11-03T16:35:52.140Z,13.79
2022-11-03T16:38:20.437Z,13.58
2022-11-03T16:40:48.494Z,13.32
2022-11-03T16:43:16.655Z,13.08
2022-11-03T16:45:44.434Z,12.92
2022-11-03T16:48:12.297Z,12.81
2022-11-03T16:50:43.044Z,12.71
2022-11-03T16:53:12.611Z,12.62
2022-11-03T16:55:40.527Z,12.54
2022-11-03T16:58:08.442Z,12.46
2022-11-03T17:00:36.375Z,12.39
2022-11-03T17:03:04.681Z,12.34
2022-11-03T17:05:32.975Z,12.33
2022-11-03T17:08:00.880Z,12.32
2022-11-03T17:10:29.334Z,12.32
2022-11-03T17:12:57.110Z,12.36
2022-11-03T17:15:25.633Z,12.38
2022-11-03T17:17:53.468Z,12.39
2022-11-03T17:20:21.345Z,12.35
2022-11-03T17:22:49.212Z,12.29
2022-11-03T17:25:17.042Z,12.24
2022-11-03T17:27:45.843Z,12.19
2022-11-03T17:30:13.802Z,12.16
2022-11-03T17:32:41.649Z,12.14
2022-11-03T17:35:10.193Z,12.12
2022-11-03T17:37:38.130Z,12.09
2022-11-03T17:40:06.928Z,12.08
2022-11-03T17:42:34.749Z,12.08
2022-11-03T17:45:02.978Z,12.10
2022-11-03T17:47:31.914Z,12.15
2022-11-03T17:50:00.862Z,12.19
2022-11-03T17:52:31.290Z,12.23
2022-11-03T17:54:59.125Z,12.27
2022-11-03T17:57:26.934Z,12.31
2022-11-03T17:59:54.986Z,12.34
2022-11-03T18:02:22.909Z,12.38
2022-11-03T18:04:52.482Z,12.43
2022-11-03T18:07:20.702Z,12.45
2022-11-03T18:09:48.433Z,12.45
2022-11-03T18:12:29.979Z,12.46
2022-11-03T18:14:58.204Z,12.46
2022-11-03T18:17:25.987Z,12.43
2022-11-03T18:19:53.915Z,12.39
2022-11-03T18:22:21.694Z,12.35
2022-11-03T18:24:49.538Z,12.29
2022-11-03T18:27:22.688Z,12.26
2022-11-03T18:29:52.820Z,12.28
2022-11-03T18:32:21.019Z,12.30
2022-11-03T18:34:48.961Z,12.33
2022-11-03T18:37:16.768Z,12.37
2022-11-03T18:39:46.854Z,12.43
2022-11-03T18:42:14.651Z,12.48
2022-11-03T18:44:43.247Z,12.53
2022-11-03T18:47:11.257Z,12.57
2022-11-03T18:49:39.060Z,12.59
2022-11-03T18:52:08.259Z,12.62
2022-11-03T18:54:36.468Z,12.64
2022-11-03T18:57:04.262Z,12.64
2022-11-03T18:59:32.295Z,12.62
2022-11-03T19:02:00.339Z,12.59
2022-11-03T19:04:29.966Z,12.57
2022-11-03T19:06:58.749Z,12.55
2022-11-03T19:09:26.562Z,12.55
2022-11-03T19:11:54.380Z,12.55
2022-11-03T19:14:22.220Z,12.56
2022-11-03T19:17:21.324Z,12.56
2022-11-03T19:19:39.948Z,12.55
2022-11-03T19:22:07.810Z,12.53
2022-11-03T19:24:35.598Z,12.53
2022-11-03T19:27:04.209Z,12.54
2022-11-03T19:29:32.043Z,12.49
2022-11-03T19:31:59.885Z,12.44
2022-11-03T19:34:27.717Z,12.41
2022-11-03T19:36:55.853Z,12.36
2022-11-03T19:39:24.782Z,12.33
2022-11-03T19:42:10.140Z,12.31
2022-11-03T19:44:37.928Z,12.28
2022-11-03T19:47:05.792Z,12.26
2022-11-03T19:49:34.624Z,12.25
2022-11-03T19:52:02.356Z,12.24
2022-11-03T19:54:31.242Z,12.24
2022-11-03T19:56:59.314Z,12.22
2022-11-03T19:59:27.299Z,12.21
2022-11-03T20:01:55.669Z,12.19
2022-11-03T20:04:23.500Z,12.16
2022-11-03T20:06:51.420Z,12.17
2022-11-03T20:09:19.732Z,12.17
2022-11-03T20:11:47.569Z,12.19
2022-11-03T20:14:16.694Z,12.17
2022-11-03T20:16:44.508Z,12.16
2022-11-03T20:19:12.650Z,12.15
2022-11-03T20:21:41.259Z,12.12
2022-11-03T20:24:09.125Z,12.08
2022-11-03T20:26:37.399Z,12.05
2022-11-03T20:29:05.314Z,12.03
2022-11-03T20:31:33.166Z,12.01
2022-11-03T20:34:01.093Z,12.00
2022-11-03T20:36:28.916Z,11.99
2022-11-03T20:39:00.059Z,11.98
2022-11-03T20:41:28.024Z,11.98
2022-11-03T20:43:55.802Z,11.96
2022-11-03T20:46:23.568Z,11.96
2022-11-03T20:48:51.483Z,11.96
2022-11-03T20:51:19.717Z,11.97
2022-11-03T20:53:47.832Z,11.97
2022-11-03T20:56:19.431Z,11.95
2022-11-03T20:58:47.736Z,11.93
2022-11-03T21:01:16.228Z,11.91
2022-11-03T21:03:58.801Z,11.90
2022-11-03T21:06:27.305Z,11.89
2022-11-03T21:08:55.451Z,11.87
2022-11-03T21:11:27.717Z,11.86
2022-11-03T21:13:57.411Z,11.85
2022-11-03T21:16:42.523Z,11.84
2022-11-03T21:19:27.601Z,11.85
2022-11-03T21:21:55.313Z,11.85
2022-11-03T21:26:59.279Z,11.82
2022-11-03T21:29:53.351Z,11.80
2022-11-03T21:32:15.058Z,11.76
2022-11-03T21:34:43.070Z,11.74
2022-11-03T21:37:11.561Z,11.73
2022-11-03T21:39:39.424Z,11.72
2022-11-03T21:42:24.363Z,11.73
2022-11-03T21:44:55.791Z,11.76
2022-11-03T21:47:23.442Z,11.80
2022-11-03T21:49:50.054Z,11.85
2022-11-03T21:52:18.000Z,11.92
2022-11-03T21:54:45.801Z,11.98
2022-11-03T21:57:15.177Z,12.00
2022-11-03T21:59:42.856Z,12.03
2022-11-03T22:02:10.651Z,12.09
2022-11-03T22:04:38.431Z,12.14
2022-11-03T22:07:06.767Z,12.18
2022-11-03T22:09:34.714Z,12.22
2022-11-03T22:12:02.440Z,12.23
2022-11-03T22:14:50.133Z,12.26
2022-11-03T22:17:16.763Z,12.29
2022-11-03T22:20:01.869Z,12.30
2022-11-03T22:22:46.808Z,12.31
2022-11-03T22:25:31.869Z,12.31
2022-11-03T22:27:59.857Z,12.31
2022-11-03T22:30:45.176Z,12.34
2022-11-03T22:33:12.886Z,12.34
2022-11-03T22:35:58.225Z,12.35
2022-11-03T22:38:48.494Z,12.31
2022-11-03T22:41:33.709Z,12.27
2022-11-03T22:44:18.806Z,12.27
2022-11-03T22:46:46.403Z,12.27
2022-11-03T22:49:14.635Z,12.27
2022-11-03T22:51:42.272Z,12.25
2022-11-03T22:54:11.715Z,12.24
2022-11-03T22:56:39.292Z,12.24
2022-11-03T22:59:06.832Z,12.27
2022-11-03T23:01:35.874Z,12.28
2022-11-03T23:04:03.851Z,12.30
2022-11-03T23:06:31.542Z,12.31
2022-11-03T23:08:59.147Z,12.30
2022-11-03T23:11:26.703Z,12.29
2022-11-03T23:13:54.641Z,12.29
2022-11-03T23:16:22.248Z,12.31
2022-11-03T23:19:07.314Z,12.31
2022-11-03T23:21:34.914Z,12.33
2022-11-03T23:24:20.456Z,12.32
2022-11-03T23:26:48.070Z,12.31
2022-11-03T23:29:15.680Z,12.34
2022-11-03T23:31:43.544Z,12.33
2022-11-03T23:34:11.155Z,12.29
2022-11-03T23:36:39.157Z,12.19
2022-11-03T23:39:06.815Z,12.08
2022-11-03T23:41:34.394Z,11.99
2022-11-03T23:44:01.934Z,11.93
2022-11-03T23:46:47.249Z,11.89
2022-11-03T23:49:14.789Z,11.83
2022-11-03T23:51:42.731Z,11.80
2022-11-03T23:54:10.319Z,11.75
2022-11-03T23:56:55.503Z,11.70
2022-11-03T23:59:23.096Z,11.63
